Northwest Junior College, Mississippi
Current Conditions -  °F | °C
As of 11:15 AM on Thursday 18 Dec 2014 (Local Time) from KUOX Reporting Station
Overcast Overcast  
Wind Chill: 41°   Ceiling: 3100
Heat Index: 41°   Visibility: 10mi
Dew Point: 36°   Wind: 0mph
Humidity: 81%   Direction: NA
Pressure: 30.25"   Gusts: NA
Location:  34.6336°N, 89.8203°W
Report Text: KUOX 181715Z AUTO 00000KT 10SM OVC031 05/02 A3025 RMK AO2 PWINO PNO
Loading
Personal Weather Stations






























Interactive Weather Map New forecast layout! Learn more

10-Day Weather Forecast

Advertisements
Track Severe Weather on mobile